sensor_id;sensor_type;location;lat;lon;timestamp;P1;durP1;ratioP1;P2;durP2;ratioP2
75847;SDS011;73195;47.532;19.082;2024-01-15T00:01:15;40.08;;;16.65;;
75847;SDS011;73195;47.532;19.082;2024-01-15T00:03:43;45.22;;;17.45;;
75847;SDS011;73195;47.532;19.082;2024-01-15T00:06:10;47.33;;;18.35;;
75847;SDS011;73195;47.532;19.082;2024-01-15T00:08:38;37.43;;;17.40;;
75847;SDS011;73195;47.532;19.082;2024-01-15T00:11:05;41.17;;;18.17;;
75847;SDS011;73195;47.532;19.082;2024-01-15T00:13:32;44.28;;;17.85;;
75847;SDS011;73195;47.532;19.082;2024-01-15T00:15:59;45.55;;;17.65;;
75847;SDS011;73195;47.532;19.082;2024-01-15T00:18:27;42.55;;;17.98;;
75847;SDS011;73195;47.532;19.082;2024-01-15T00:20:55;40.90;;;17.20;;
75847;SDS011;73195;47.532;19.082;2024-01-15T00:23:22;37.85;;;17.27;;
75847;SDS011;73195;47.532;19.082;2024-01-15T00:25:50;45.35;;;18.58;;
75847;SDS011;73195;47.532;19.082;2024-01-15T00:28:17;41.72;;;17.27;;
75847;SDS011;73195;47.532;19.082;2024-01-15T00:30:44;44.30;;;17.20;;
75847;SDS011;73195;47.532;19.082;2024-01-15T00:33:13;41.03;;;17.93;;
75847;SDS011;73195;47.532;19.082;2024-01-15T00:35:40;42.58;;;17.70;;
75847;SDS011;73195;47.532;19.082;2024-01-15T00:38:08;38.15;;;16.60;;
75847;SDS011;73195;47.532;19.082;2024-01-15T00:40:36;37.95;;;17.67;;
75847;SDS011;73195;47.532;19.082;2024-01-15T00:43:03;41.15;;;17.42;;
75847;SDS011;73195;47.532;19.082;2024-01-15T00:45:30;43.07;;;17.13;;
75847;SDS011;73195;47.532;19.082;2024-01-15T00:47:58;44.50;;;17.42;;
75847;SDS011;73195;47.532;19.082;2024-01-15T00:50:26;40.85;;;17.12;;
75847;SDS011;73195;47.532;19.082;2024-01-15T00:52:53;40.08;;;17.35;;
75847;SDS011;73195;47.532;19.082;2024-01-15T00:55:22;41.47;;;17.50;;
75847;SDS011;73195;47.532;19.082;2024-01-15T00:57:49;42.93;;;17.90;;
75847;SDS011;73195;47.532;19.082;2024-01-15T01:00:17;38.28;;;17.37;;
75847;SDS011;73195;47.532;19.082;2024-01-15T01:02:45;40.38;;;16.73;;
75847;SDS011;73195;47.532;19.082;2024-01-15T01:05:12;35.42;;;16.87;;
75847;SDS011;73195;47.532;19.082;2024-01-15T01:07:39;39.63;;;17.45;;
75847;SDS011;73195;47.532;19.082;2024-01-15T01:10:06;43.50;;;17.33;;
75847;SDS011;73195;47.532;19.082;2024-01-15T01:12:35;44.03;;;17.87;;
75847;SDS011;73195;47.532;19.082;2024-01-15T01:15:03;41.22;;;17.30;;
75847;SDS011;73195;47.532;19.082;2024-01-15T01:17:31;42.25;;;18.25;;
75847;SDS011;73195;47.532;19.082;2024-01-15T01:19:58;40.20;;;17.70;;
75847;SDS011;73195;47.532;19.082;2024-01-15T01:22:25;40.80;;;17.00;;
75847;SDS011;73195;47.532;19.082;2024-01-15T01:24:52;41.45;;;17.58;;
75847;SDS011;73195;47.532;19.082;2024-01-15T01:27:19;44.53;;;17.92;;
75847;SDS011;73195;47.532;19.082;2024-01-15T01:29:47;45.03;;;18.30;;
75847;SDS011;73195;47.532;19.082;2024-01-15T01:32:15;41.20;;;17.17;;
75847;SDS011;73195;47.532;19.082;2024-01-15T01:34:42;43.80;;;17.63;;
75847;SDS011;73195;47.532;19.082;2024-01-15T01:37:09;45.08;;;18.05;;
75847;SDS011;73195;47.532;19.082;2024-01-15T01:39:38;41.70;;;18.15;;
75847;SDS011;73195;47.532;19.082;2024-01-15T01:42:05;41.55;;;17.67;;
75847;SDS011;73195;47.532;19.082;2024-01-15T01:44:33;43.85;;;19.25;;
75847;SDS011;73195;47.532;19.082;2024-01-15T01:47:01;39.10;;;17.20;;
75847;SDS011;73195;47.532;19.082;2024-01-15T01:49:29;41.25;;;18.87;;
75847;SDS011;73195;47.532;19.082;2024-01-15T01:51:56;44.10;;;18.52;;
75847;SDS011;73195;47.532;19.082;2024-01-15T01:54:25;43.35;;;18.60;;
75847;SDS011;73195;47.532;19.082;2024-01-15T01:56:53;40.15;;;18.37;;
75847;SDS011;73195;47.532;19.082;2024-01-15T01:59:20;41.37;;;18.20;;
75847;SDS011;73195;47.532;19.082;2024-01-15T02:01:47;41.67;;;17.90;;
75847;SDS011;73195;47.532;19.082;2024-01-15T02:04:17;44.38;;;18.58;;
75847;SDS011;73195;47.532;19.082;2024-01-15T02:06:44;42.22;;;17.83;;
75847;SDS011;73195;47.532;19.082;2024-01-15T02:09:11;42.53;;;18.65;;
75847;SDS011;73195;47.532;19.082;2024-01-15T02:11:41;43.70;;;18.90;;
75847;SDS011;73195;47.532;19.082;2024-01-15T02:14:08;43.83;;;18.83;;
75847;SDS011;73195;47.532;19.082;2024-01-15T02:16:35;45.90;;;19.12;;
75847;SDS011;73195;47.532;19.082;2024-01-15T02:19:03;42.03;;;18.37;;
75847;SDS011;73195;47.532;19.082;2024-01-15T02:21:31;42.08;;;18.60;;
75847;SDS011;73195;47.532;19.082;2024-01-15T02:24:02;43.10;;;18.30;;
75847;SDS011;73195;47.532;19.082;2024-01-15T02:26:30;44.20;;;18.83;;
75847;SDS011;73195;47.532;19.082;2024-01-15T02:29:01;42.05;;;18.35;;
75847;SDS011;73195;47.532;19.082;2024-01-15T02:31:28;40.40;;;19.00;;
75847;SDS011;73195;47.532;19.082;2024-01-15T02:33:56;43.25;;;17.48;;
75847;SDS011;73195;47.532;19.082;2024-01-15T02:36:23;47.37;;;19.27;;
75847;SDS011;73195;47.532;19.082;2024-01-15T02:38:50;43.75;;;18.85;;
75847;SDS011;73195;47.532;19.082;2024-01-15T02:41:18;44.05;;;18.83;;
75847;SDS011;73195;47.532;19.082;2024-01-15T02:43:45;43.83;;;18.42;;
75847;SDS011;73195;47.532;19.082;2024-01-15T02:46:12;43.10;;;17.62;;
75847;SDS011;73195;47.532;19.082;2024-01-15T02:48:40;38.83;;;17.90;;
75847;SDS011;73195;47.532;19.082;2024-01-15T02:51:07;43.10;;;18.08;;
75847;SDS011;73195;47.532;19.082;2024-01-15T02:53:35;38.70;;;18.08;;
75847;SDS011;73195;47.532;19.082;2024-01-15T02:56:03;40.90;;;18.40;;
75847;SDS011;73195;47.532;19.082;2024-01-15T02:58:31;47.38;;;19.45;;
75847;SDS011;73195;47.532;19.082;2024-01-15T03:00:58;44.17;;;19.37;;
75847;SDS011;73195;47.532;19.082;2024-01-15T03:03:25;45.08;;;19.08;;
75847;SDS011;73195;47.532;19.082;2024-01-15T03:05:52;41.08;;;18.12;;
75847;SDS011;73195;47.532;19.082;2024-01-15T03:08:19;42.67;;;18.10;;
75847;SDS011;73195;47.532;19.082;2024-01-15T03:10:48;46.63;;;20.02;;
75847;SDS011;73195;47.532;19.082;2024-01-15T03:13:15;47.33;;;19.40;;
75847;SDS011;73195;47.532;19.082;2024-01-15T03:15:43;45.90;;;18.37;;
75847;SDS011;73195;47.532;19.082;2024-01-15T03:18:11;45.08;;;18.77;;
75847;SDS011;73195;47.532;19.082;2024-01-15T03:20:38;41.25;;;18.25;;
75847;SDS011;73195;47.532;19.082;2024-01-15T03:23:05;42.70;;;18.48;;
75847;SDS011;73195;47.532;19.082;2024-01-15T03:25:33;44.20;;;18.77;;
75847;SDS011;73195;47.532;19.082;2024-01-15T03:28:00;47.85;;;19.10;;
75847;SDS011;73195;47.532;19.082;2024-01-15T03:30:27;45.38;;;18.67;;
75847;SDS011;73195;47.532;19.082;2024-01-15T03:32:55;46.60;;;19.55;;
75847;SDS011;73195;47.532;19.082;2024-01-15T03:35:22;42.65;;;19.02;;
75847;SDS011;73195;47.532;19.082;2024-01-15T03:37:54;44.70;;;18.77;;
75847;SDS011;73195;47.532;19.082;2024-01-15T03:40:22;43.60;;;18.73;;
75847;SDS011;73195;47.532;19.082;2024-01-15T03:42:48;44.72;;;19.00;;
75847;SDS011;73195;47.532;19.082;2024-01-15T03:45:16;47.70;;;19.08;;
75847;SDS011;73195;47.532;19.082;2024-01-15T03:47:43;40.08;;;18.70;;
75847;SDS011;73195;47.532;19.082;2024-01-15T03:50:11;48.50;;;18.87;;
75847;SDS011;73195;47.532;19.082;2024-01-15T03:52:38;44.13;;;19.23;;
75847;SDS011;73195;47.532;19.082;2024-01-15T03:55:05;45.75;;;19.70;;
75847;SDS011;73195;47.532;19.082;2024-01-15T03:57:33;44.08;;;18.55;;
75847;SDS011;73195;47.532;19.082;2024-01-15T04:00:01;41.78;;;19.37;;
75847;SDS011;73195;47.532;19.082;2024-01-15T04:02:30;43.73;;;19.07;;
75847;SDS011;73195;47.532;19.082;2024-01-15T04:04:58;41.20;;;18.17;;
75847;SDS011;73195;47.532;19.082;2024-01-15T04:07:26;45.58;;;19.10;;
75847;SDS011;73195;47.532;19.082;2024-01-15T04:09:53;44.67;;;18.67;;
75847;SDS011;73195;47.532;19.082;2024-01-15T04:12:21;44.80;;;19.52;;
75847;SDS011;73195;47.532;19.082;2024-01-15T04:14:48;45.73;;;19.60;;
75847;SDS011;73195;47.532;19.082;2024-01-15T04:17:14;42.97;;;18.67;;
75847;SDS011;73195;47.532;19.082;2024-01-15T04:19:43;45.72;;;19.33;;
75847;SDS011;73195;47.532;19.082;2024-01-15T04:22:10;43.63;;;18.65;;
75847;SDS011;73195;47.532;19.082;2024-01-15T04:24:38;49.25;;;20.98;;
75847;SDS011;73195;47.532;19.082;2024-01-15T04:27:05;43.93;;;18.93;;
75847;SDS011;73195;47.532;19.082;2024-01-15T04:29:33;45.38;;;20.25;;
75847;SDS011;73195;47.532;19.082;2024-01-15T04:32:00;47.13;;;19.77;;
75847;SDS011;73195;47.532;19.082;2024-01-15T04:34:27;45.42;;;18.80;;
75847;SDS011;73195;47.532;19.082;2024-01-15T04:36:54;49.13;;;20.42;;
75847;SDS011;73195;47.532;19.082;2024-01-15T04:39:21;43.43;;;19.37;;
75847;SDS011;73195;47.532;19.082;2024-01-15T04:41:50;50.22;;;19.75;;
75847;SDS011;73195;47.532;19.082;2024-01-15T04:44:18;45.75;;;18.95;;
75847;SDS011;73195;47.532;19.082;2024-01-15T04:46:45;44.63;;;18.77;;
75847;SDS011;73195;47.532;19.082;2024-01-15T04:49:12;46.13;;;20.50;;
75847;SDS011;73195;47.532;19.082;2024-01-15T04:51:39;47.10;;;20.20;;
75847;SDS011;73195;47.532;19.082;2024-01-15T04:54:06;51.80;;;21.23;;
75847;SDS011;73195;47.532;19.082;2024-01-15T04:56:33;47.40;;;20.75;;
75847;SDS011;73195;47.532;19.082;2024-01-15T04:59:02;48.95;;;20.83;;
75847;SDS011;73195;47.532;19.082;2024-01-15T05:01:30;45.22;;;19.35;;
75847;SDS011;73195;47.532;19.082;2024-01-15T05:03:58;44.70;;;19.10;;
75847;SDS011;73195;47.532;19.082;2024-01-15T05:06:25;47.78;;;19.70;;
75847;SDS011;73195;47.532;19.082;2024-01-15T05:08:51;50.38;;;20.12;;
75847;SDS011;73195;47.532;19.082;2024-01-15T05:11:19;46.92;;;20.15;;
75847;SDS011;73195;47.532;19.082;2024-01-15T05:13:46;47.83;;;19.70;;
75847;SDS011;73195;47.532;19.082;2024-01-15T05:16:14;50.03;;;20.43;;
75847;SDS011;73195;47.532;19.082;2024-01-15T05:18:42;46.92;;;18.80;;
75847;SDS011;73195;47.532;19.082;2024-01-15T05:21:09;43.75;;;19.65;;
75847;SDS011;73195;47.532;19.082;2024-01-15T05:23:36;44.10;;;20.10;;
75847;SDS011;73195;47.532;19.082;2024-01-15T05:26:03;49.45;;;20.73;;
75847;SDS011;73195;47.532;19.082;2024-01-15T05:28:30;46.87;;;19.93;;
75847;SDS011;73195;47.532;19.082;2024-01-15T05:30:57;51.00;;;20.73;;
75847;SDS011;73195;47.532;19.082;2024-01-15T05:33:25;50.67;;;21.42;;
75847;SDS011;73195;47.532;19.082;2024-01-15T05:35:53;48.30;;;20.30;;
75847;SDS011;73195;47.532;19.082;2024-01-15T05:38:20;50.15;;;21.33;;
75847;SDS011;73195;47.532;19.082;2024-01-15T05:40:48;48.57;;;20.57;;
75847;SDS011;73195;47.532;19.082;2024-01-15T05:43:15;50.90;;;20.92;;
75847;SDS011;73195;47.532;19.082;2024-01-15T05:45:42;52.90;;;21.20;;
75847;SDS011;73195;47.532;19.082;2024-01-15T05:48:10;50.95;;;20.50;;
75847;SDS011;73195;47.532;19.082;2024-01-15T05:50:38;51.28;;;21.58;;
75847;SDS011;73195;47.532;19.082;2024-01-15T05:53:05;48.27;;;20.60;;
75847;SDS011;73195;47.532;19.082;2024-01-15T05:55:33;48.38;;;20.30;;
75847;SDS011;73195;47.532;19.082;2024-01-15T05:58:01;51.13;;;21.15;;
75847;SDS011;73195;47.532;19.082;2024-01-15T06:00:28;54.05;;;21.58;;
75847;SDS011;73195;47.532;19.082;2024-01-15T06:02:55;50.50;;;21.35;;
75847;SDS011;73195;47.532;19.082;2024-01-15T06:05:22;46.63;;;20.33;;
75847;SDS011;73195;47.532;19.082;2024-01-15T06:07:50;47.88;;;20.30;;
75847;SDS011;73195;47.532;19.082;2024-01-15T06:10:18;50.40;;;21.37;;
75847;SDS011;73195;47.532;19.082;2024-01-15T06:12:45;53.28;;;21.85;;
75847;SDS011;73195;47.532;19.082;2024-01-15T06:15:12;52.42;;;22.83;;
75847;SDS011;73195;47.532;19.082;2024-01-15T06:17:39;54.47;;;21.93;;
75847;SDS011;73195;47.532;19.082;2024-01-15T06:20:07;49.60;;;20.77;;
75847;SDS011;73195;47.532;19.082;2024-01-15T06:22:36;49.60;;;21.40;;
75847;SDS011;73195;47.532;19.082;2024-01-15T06:25:06;49.25;;;20.70;;
75847;SDS011;73195;47.532;19.082;2024-01-15T06:27:33;48.38;;;21.40;;
75847;SDS011;73195;47.532;19.082;2024-01-15T06:30:01;52.87;;;22.20;;
75847;SDS011;73195;47.532;19.082;2024-01-15T06:32:29;56.85;;;22.60;;
75847;SDS011;73195;47.532;19.082;2024-01-15T06:34:56;51.72;;;21.98;;
75847;SDS011;73195;47.532;19.082;2024-01-15T06:37:23;51.37;;;22.52;;
75847;SDS011;73195;47.532;19.082;2024-01-15T06:39:50;46.30;;;20.90;;
75847;SDS011;73195;47.532;19.082;2024-01-15T06:42:19;46.10;;;20.60;;
75847;SDS011;73195;47.532;19.082;2024-01-15T06:44:47;46.45;;;21.35;;
75847;SDS011;73195;47.532;19.082;2024-01-15T06:47:14;50.80;;;21.37;;
75847;SDS011;73195;47.532;19.082;2024-01-15T06:49:43;48.90;;;20.62;;
75847;SDS011;73195;47.532;19.082;2024-01-15T06:52:10;51.55;;;20.73;;
75847;SDS011;73195;47.532;19.082;2024-01-15T06:54:38;49.77;;;21.57;;
75847;SDS011;73195;47.532;19.082;2024-01-15T06:57:05;51.13;;;21.48;;
75847;SDS011;73195;47.532;19.082;2024-01-15T06:59:34;47.42;;;21.35;;
75847;SDS011;73195;47.532;19.082;2024-01-15T07:02:02;47.35;;;21.23;;
75847;SDS011;73195;47.532;19.082;2024-01-15T07:04:29;49.47;;;20.98;;
75847;SDS011;73195;47.532;19.082;2024-01-15T07:06:56;45.57;;;19.23;;
75847;SDS011;73195;47.532;19.082;2024-01-15T07:09:23;51.30;;;20.80;;
75847;SDS011;73195;47.532;19.082;2024-01-15T07:11:50;51.92;;;21.42;;
75847;SDS011;73195;47.532;19.082;2024-01-15T07:14:17;49.22;;;20.95;;
75847;SDS011;73195;47.532;19.082;2024-01-15T07:16:46;53.50;;;21.30;;
75847;SDS011;73195;47.532;19.082;2024-01-15T07:19:13;52.17;;;21.90;;
75847;SDS011;73195;47.532;19.082;2024-01-15T07:21:40;53.75;;;21.37;;
75847;SDS011;73195;47.532;19.082;2024-01-15T07:24:08;52.80;;;22.85;;
75847;SDS011;73195;47.532;19.082;2024-01-15T07:26:35;52.00;;;22.08;;
75847;SDS011;73195;47.532;19.082;2024-01-15T07:29:02;49.15;;;22.27;;
75847;SDS011;73195;47.532;19.082;2024-01-15T07:31:30;56.37;;;22.87;;
75847;SDS011;73195;47.532;19.082;2024-01-15T07:33:59;52.28;;;22.23;;
75847;SDS011;73195;47.532;19.082;2024-01-15T07:36:26;60.83;;;23.30;;
75847;SDS011;73195;47.532;19.082;2024-01-15T07:38:53;58.83;;;23.40;;
75847;SDS011;73195;47.532;19.082;2024-01-15T07:41:20;62.05;;;24.20;;
75847;SDS011;73195;47.532;19.082;2024-01-15T07:43:48;57.70;;;22.47;;
75847;SDS011;73195;47.532;19.082;2024-01-15T07:46:15;57.13;;;23.33;;
75847;SDS011;73195;47.532;19.082;2024-01-15T07:48:42;52.67;;;23.08;;
75847;SDS011;73195;47.532;19.082;2024-01-15T07:51:11;54.40;;;23.48;;
75847;SDS011;73195;47.532;19.082;2024-01-15T07:53:38;51.08;;;20.42;;
75847;SDS011;73195;47.532;19.082;2024-01-15T07:56:05;55.43;;;21.70;;
75847;SDS011;73195;47.532;19.082;2024-01-15T07:58:32;54.53;;;21.33;;
75847;SDS011;73195;47.532;19.082;2024-01-15T08:00:59;52.55;;;22.02;;
75847;SDS011;73195;47.532;19.082;2024-01-15T08:03:27;53.20;;;21.40;;
75847;SDS011;73195;47.532;19.082;2024-01-15T08:05:54;51.00;;;21.83;;
75847;SDS011;73195;47.532;19.082;2024-01-15T08:08:24;47.70;;;20.43;;
75847;SDS011;73195;47.532;19.082;2024-01-15T08:10:52;52.53;;;19.42;;
75847;SDS011;73195;47.532;19.082;2024-01-15T08:13:19;50.90;;;20.20;;
75847;SDS011;73195;47.532;19.082;2024-01-15T08:15:46;44.72;;;18.90;;
75847;SDS011;73195;47.532;19.082;2024-01-15T08:18:13;40.20;;;17.10;;
75847;SDS011;73195;47.532;19.082;2024-01-15T08:20:40;37.10;;;15.87;;
75847;SDS011;73195;47.532;19.082;2024-01-15T08:23:07;33.42;;;14.48;;
75847;SDS011;73195;47.532;19.082;2024-01-15T08:25:36;33.40;;;14.68;;
75847;SDS011;73195;47.532;19.082;2024-01-15T08:28:04;43.05;;;16.12;;
75847;SDS011;73195;47.532;19.082;2024-01-15T08:30:31;31.77;;;13.55;;
75847;SDS011;73195;47.532;19.082;2024-01-15T08:32:58;32.23;;;13.13;;
75847;SDS011;73195;47.532;19.082;2024-01-15T08:35:25;31.67;;;12.10;;
75847;SDS011;73195;47.532;19.082;2024-01-15T08:37:52;26.00;;;10.98;;
75847;SDS011;73195;47.532;19.082;2024-01-15T08:40:19;29.63;;;11.52;;
75847;SDS011;73195;47.532;19.082;2024-01-15T08:42:48;24.63;;;11.00;;
75847;SDS011;73195;47.532;19.082;2024-01-15T08:45:15;29.63;;;10.53;;
75847;SDS011;73195;47.532;19.082;2024-01-15T08:47:42;23.92;;;10.27;;
75847;SDS011;73195;47.532;19.082;2024-01-15T08:50:09;25.70;;;11.15;;
75847;SDS011;73195;47.532;19.082;2024-01-15T08:52:36;23.90;;;10.60;;
75847;SDS011;73195;47.532;19.082;2024-01-15T08:55:04;23.38;;;10.27;;
75847;SDS011;73195;47.532;19.082;2024-01-15T08:57:32;24.83;;;10.03;;
75847;SDS011;73195;47.532;19.082;2024-01-15T09:00:00;27.73;;;10.63;;
75847;SDS011;73195;47.532;19.082;2024-01-15T09:02:29;25.37;;;10.20;;
75847;SDS011;73195;47.532;19.082;2024-01-15T09:04:56;19.80;;;9.07;;
75847;SDS011;73195;47.532;19.082;2024-01-15T09:07:23;25.48;;;10.63;;
75847;SDS011;73195;47.532;19.082;2024-01-15T09:09:52;21.83;;;8.83;;
75847;SDS011;73195;47.532;19.082;2024-01-15T09:12:19;23.48;;;10.10;;
75847;SDS011;73195;47.532;19.082;2024-01-15T09:14:47;24.98;;;10.27;;
75847;SDS011;73195;47.532;19.082;2024-01-15T09:17:17;20.62;;;9.05;;
75847;SDS011;73195;47.532;19.082;2024-01-15T09:19:44;24.50;;;9.75;;
75847;SDS011;73195;47.532;19.082;2024-01-15T09:22:12;21.97;;;8.87;;
75847;SDS011;73195;47.532;19.082;2024-01-15T09:24:40;21.95;;;8.98;;
75847;SDS011;73195;47.532;19.082;2024-01-15T09:27:07;20.92;;;9.48;;
75847;SDS011;73195;47.532;19.082;2024-01-15T09:29:34;19.45;;;7.78;;
75847;SDS011;73195;47.532;19.082;2024-01-15T09:32:02;21.60;;;8.15;;
75847;SDS011;73195;47.532;19.082;2024-01-15T09:34:31;17.80;;;7.63;;
75847;SDS011;73195;47.532;19.082;2024-01-15T09:36:58;19.48;;;8.07;;
75847;SDS011;73195;47.532;19.082;2024-01-15T09:39:26;19.20;;;8.25;;
75847;SDS011;73195;47.532;19.082;2024-01-15T09:41:53;22.67;;;7.93;;
75847;SDS011;73195;47.532;19.082;2024-01-15T09:44:20;18.65;;;7.43;;
75847;SDS011;73195;47.532;19.082;2024-01-15T09:46:48;18.07;;;7.53;;
75847;SDS011;73195;47.532;19.082;2024-01-15T09:49:15;18.42;;;7.28;;
75847;SDS011;73195;47.532;19.082;2024-01-15T09:51:44;21.33;;;7.25;;
75847;SDS011;73195;47.532;19.082;2024-01-15T09:54:11;16.23;;;6.45;;
75847;SDS011;73195;47.532;19.082;2024-01-15T09:56:42;16.70;;;6.32;;
75847;SDS011;73195;47.532;19.082;2024-01-15T09:59:09;15.53;;;6.13;;
75847;SDS011;73195;47.532;19.082;2024-01-15T10:01:36;14.85;;;6.10;;
75847;SDS011;73195;47.532;19.082;2024-01-15T10:04:05;15.45;;;5.87;;
75847;SDS011;73195;47.532;19.082;2024-01-15T10:06:32;15.45;;;5.85;;
75847;SDS011;73195;47.532;19.082;2024-01-15T10:09:01;16.48;;;6.07;;
75847;SDS011;73195;47.532;19.082;2024-01-15T10:11:29;14.27;;;5.80;;
75847;SDS011;73195;47.532;19.082;2024-01-15T10:13:57;17.60;;;6.07;;
75847;SDS011;73195;47.532;19.082;2024-01-15T10:16:24;15.18;;;5.60;;
75847;SDS011;73195;47.532;19.082;2024-01-15T10:18:51;15.05;;;6.25;;
75847;SDS011;73195;47.532;19.082;2024-01-15T10:21:18;15.75;;;5.55;;
75847;SDS011;73195;47.532;19.082;2024-01-15T10:23:45;13.23;;;5.07;;
75847;SDS011;73195;47.532;19.082;2024-01-15T10:26:14;16.65;;;5.85;;
75847;SDS011;73195;47.532;19.082;2024-01-15T10:28:42;22.85;;;5.80;;
75847;SDS011;73195;47.532;19.082;2024-01-15T10:31:09;12.07;;;5.00;;
75847;SDS011;73195;47.532;19.082;2024-01-15T10:33:37;14.38;;;5.07;;
75847;SDS011;73195;47.532;19.082;2024-01-15T10:36:04;13.27;;;4.90;;
75847;SDS011;73195;47.532;19.082;2024-01-15T10:38:37;12.02;;;4.50;;
75847;SDS011;73195;47.532;19.082;2024-01-15T10:41:04;12.20;;;4.50;;
75847;SDS011;73195;47.532;19.082;2024-01-15T10:43:33;12.27;;;4.22;;
75847;SDS011;73195;47.532;19.082;2024-01-15T10:46:00;13.82;;;5.32;;
75847;SDS011;73195;47.532;19.082;2024-01-15T10:48:28;13.40;;;4.80;;
75847;SDS011;73195;47.532;19.082;2024-01-15T10:50:56;12.70;;;4.80;;
75847;SDS011;73195;47.532;19.082;2024-01-15T10:53:23;11.75;;;4.70;;
75847;SDS011;73195;47.532;19.082;2024-01-15T10:55:51;11.73;;;4.90;;
75847;SDS011;73195;47.532;19.082;2024-01-15T10:58:18;12.48;;;4.60;;
75847;SDS011;73195;47.532;19.082;2024-01-15T11:00:49;11.50;;;4.33;;
75847;SDS011;73195;47.532;19.082;2024-01-15T11:03:16;11.73;;;4.28;;
75847;SDS011;73195;47.532;19.082;2024-01-15T11:05:43;13.50;;;4.18;;
75847;SDS011;73195;47.532;19.082;2024-01-15T11:08:10;11.38;;;4.45;;
75847;SDS011;73195;47.532;19.082;2024-01-15T11:10:37;14.23;;;4.20;;
75847;SDS011;73195;47.532;19.082;2024-01-15T11:13:05;9.23;;;3.73;;
75847;SDS011;73195;47.532;19.082;2024-01-15T11:18:29;10.55;;;3.78;;
75847;SDS011;73195;47.532;19.082;2024-01-15T11:23:51;8.90;;;3.47;;
75847;SDS011;73195;47.532;19.082;2024-01-15T11:26:29;10.10;;;3.57;;
75847;SDS011;73195;47.532;19.082;2024-01-15T11:28:57;13.93;;;3.85;;
75847;SDS011;73195;47.532;19.082;2024-01-15T11:31:28;7.37;;;3.30;;
75847;SDS011;73195;47.532;19.082;2024-01-15T11:33:55;11.82;;;4.07;;
75847;SDS011;73195;47.532;19.082;2024-01-15T11:36:23;11.00;;;3.75;;
75847;SDS011;73195;47.532;19.082;2024-01-15T11:39:41;8.03;;;2.77;;
75847;SDS011;73195;47.532;19.082;2024-01-15T11:42:09;11.30;;;3.47;;
75847;SDS011;73195;47.532;19.082;2024-01-15T11:44:37;8.10;;;3.20;;
75847;SDS011;73195;47.532;19.082;2024-01-15T11:47:06;9.73;;;2.78;;
75847;SDS011;73195;47.532;19.082;2024-01-15T11:52:31;8.10;;;2.80;;
75847;SDS011;73195;47.532;19.082;2024-01-15T11:55:00;8.68;;;3.20;;
75847;SDS011;73195;47.532;19.082;2024-01-15T11:57:33;9.27;;;3.00;;
75847;SDS011;73195;47.532;19.082;2024-01-15T12:00:12;10.70;;;3.35;;
75847;SDS011;73195;47.532;19.082;2024-01-15T12:02:41;9.75;;;3.05;;
75847;SDS011;73195;47.532;19.082;2024-01-15T12:05:09;8.13;;;3.17;;
75847;SDS011;73195;47.532;19.082;2024-01-15T12:07:38;8.55;;;2.78;;
75847;SDS011;73195;47.532;19.082;2024-01-15T12:10:08;8.18;;;2.90;;
75847;SDS011;73195;47.532;19.082;2024-01-15T12:12:39;7.62;;;2.87;;
75847;SDS011;73195;47.532;19.082;2024-01-15T12:15:14;9.90;;;2.95;;
75847;SDS011;73195;47.532;19.082;2024-01-15T12:17:43;9.97;;;2.60;;
75847;SDS011;73195;47.532;19.082;2024-01-15T12:20:11;7.35;;;2.67;;
75847;SDS011;73195;47.532;19.082;2024-01-15T12:22:39;8.93;;;2.42;;
75847;SDS011;73195;47.532;19.082;2024-01-15T12:25:06;7.18;;;2.85;;
75847;SDS011;73195;47.532;19.082;2024-01-15T12:27:33;7.57;;;2.87;;
75847;SDS011;73195;47.532;19.082;2024-01-15T12:30:01;12.17;;;2.87;;
75847;SDS011;73195;47.532;19.082;2024-01-15T12:32:29;8.95;;;2.75;;
75847;SDS011;73195;47.532;19.082;2024-01-15T12:34:57;6.90;;;2.70;;
75847;SDS011;73195;47.532;19.082;2024-01-15T12:37:25;6.82;;;2.60;;
75847;SDS011;73195;47.532;19.082;2024-01-15T12:39:52;7.28;;;2.70;;
75847;SDS011;73195;47.532;19.082;2024-01-15T12:42:21;6.43;;;2.60;;
75847;SDS011;73195;47.532;19.082;2024-01-15T12:44:48;8.35;;;2.78;;
75847;SDS011;73195;47.532;19.082;2024-01-15T12:47:15;8.20;;;2.85;;
75847;SDS011;73195;47.532;19.082;2024-01-15T12:49:46;6.55;;;2.45;;
75847;SDS011;73195;47.532;19.082;2024-01-15T12:52:18;8.30;;;2.80;;
75847;SDS011;73195;47.532;19.082;2024-01-15T12:54:45;9.50;;;2.90;;
75847;SDS011;73195;47.532;19.082;2024-01-15T12:57:12;7.50;;;2.90;;
75847;SDS011;73195;47.532;19.082;2024-01-15T12:59:39;7.90;;;2.72;;
75847;SDS011;73195;47.532;19.082;2024-01-15T13:02:06;6.57;;;2.70;;
75847;SDS011;73195;47.532;19.082;2024-01-15T13:04:33;7.85;;;2.72;;
75847;SDS011;73195;47.532;19.082;2024-01-15T13:07:00;10.87;;;2.50;;
75847;SDS011;73195;47.532;19.082;2024-01-15T13:09:29;8.10;;;2.40;;
75847;SDS011;73195;47.532;19.082;2024-01-15T13:11:56;7.62;;;2.47;;
75847;SDS011;73195;47.532;19.082;2024-01-15T13:14:23;8.07;;;2.80;;
75847;SDS011;73195;47.532;19.082;2024-01-15T13:16:50;6.68;;;2.28;;
75847;SDS011;73195;47.532;19.082;2024-01-15T13:19:17;7.77;;;2.80;;
75847;SDS011;73195;47.532;19.082;2024-01-15T13:21:46;9.27;;;2.70;;
75847;SDS011;73195;47.532;19.082;2024-01-15T13:24:13;9.35;;;3.10;;
75847;SDS011;73195;47.532;19.082;2024-01-15T13:26:42;7.75;;;2.72;;
75847;SDS011;73195;47.532;19.082;2024-01-15T13:29:09;6.47;;;2.20;;
75847;SDS011;73195;47.532;19.082;2024-01-15T13:31:36;6.93;;;2.77;;
75847;SDS011;73195;47.532;19.082;2024-01-15T13:34:03;8.57;;;2.65;;
75847;SDS011;73195;47.532;19.082;2024-01-15T13:36:31;8.48;;;2.97;;
75847;SDS011;73195;47.532;19.082;2024-01-15T13:38:58;6.85;;;2.80;;
75847;SDS011;73195;47.532;19.082;2024-01-15T13:41:25;10.23;;;2.72;;
75847;SDS011;73195;47.532;19.082;2024-01-15T13:43:55;7.67;;;2.83;;
75847;SDS011;73195;47.532;19.082;2024-01-15T13:46:23;8.20;;;2.60;;
75847;SDS011;73195;47.532;19.082;2024-01-15T13:48:52;7.55;;;2.40;;
75847;SDS011;73195;47.532;19.082;2024-01-15T13:51:21;7.18;;;2.50;;
75847;SDS011;73195;47.532;19.082;2024-01-15T13:53:48;8.80;;;2.47;;
75847;SDS011;73195;47.532;19.082;2024-01-15T13:56:16;7.70;;;2.60;;
75847;SDS011;73195;47.532;19.082;2024-01-15T13:58:43;6.10;;;2.10;;
75847;SDS011;73195;47.532;19.082;2024-01-15T14:01:12;8.18;;;2.80;;
75847;SDS011;73195;47.532;19.082;2024-01-15T14:03:39;6.62;;;2.78;;
75847;SDS011;73195;47.532;19.082;2024-01-15T14:06:06;6.75;;;2.40;;
75847;SDS011;73195;47.532;19.082;2024-01-15T14:08:36;10.83;;;2.73;;
75847;SDS011;73195;47.532;19.082;2024-01-15T14:11:03;8.23;;;2.50;;
75847;SDS011;73195;47.532;19.082;2024-01-15T14:13:32;6.32;;;2.70;;
75847;SDS011;73195;47.532;19.082;2024-01-15T14:15:59;11.38;;;3.60;;
75847;SDS011;73195;47.532;19.082;2024-01-15T14:18:28;9.93;;;2.60;;
75847;SDS011;73195;47.532;19.082;2024-01-15T14:20:55;7.30;;;2.60;;
75847;SDS011;73195;47.532;19.082;2024-01-15T14:23:22;6.72;;;2.60;;
75847;SDS011;73195;47.532;19.082;2024-01-15T14:25:49;6.30;;;2.10;;
75847;SDS011;73195;47.532;19.082;2024-01-15T14:28:16;7.95;;;2.60;;